Time;durP1;ratioP1;P1;durP2;ratioP2;P2;SDS_P1;SDS_P2;PMS_P1;PMS_P2;Temp;Humidity;BMP_temperature;BMP_pressure;BME280_temperature;BME280_humidity;BME280_pressure;Samples;Min_cycle;Max_cycle;Signal;HPM_P1;HPM_P2
2022/11/27 00:01:37;;;;;;;7.97;5.55;;;;;;;1.39;100.00;101362.69;1732625;83;21183;-70
2022/11/27 00:04:06;;;;;;;10.20;6.45;;;;;;;1.37;100.00;101365.13;1732607;81;21552;-71
2022/11/27 00:06:35;;;;;;;11.53;5.75;;;;;;;1.41;100.00;101367.48;1732315;81;21132;-71
2022/11/27 00:09:07;;;;;;;8.08;5.17;;;;;;;1.43;100.00;101368.72;1732563;83;21088;-71
2022/11/27 00:11:38;;;;;;;10.60;5.95;;;;;;;1.42;100.00;101367.86;1757342;82;21618;-71
2022/11/27 00:14:11;;;;;;;9.63;6.17;;;;;;;1.44;100.00;101374.50;1723626;83;21237;-70
2022/11/27 00:16:41;;;;;;;10.68;6.65;;;;;;;1.43;100.00;101376.34;1725330;83;21552;-71
2022/11/27 00:19:10;;;;;;;10.35;5.55;;;;;;;1.40;100.00;101386.50;1757100;82;21128;-70
2022/11/27 00:21:38;;;;;;;9.45;5.95;;;;;;;1.37;100.00;101383.55;1723563;83;21155;-71
2022/11/27 00:24:08;;;;;;;7.83;5.50;;;;;;;1.38;100.00;101389.81;1725744;83;21163;-70
2022/11/27 00:26:36;;;;;;;7.28;5.15;;;;;;;1.36;100.00;101383.17;1756891;82;21151;-71
2022/11/27 00:29:08;;;;;;;7.70;4.70;;;;;;;1.37;100.00;101386.73;1723628;83;21165;-70
2022/11/27 00:31:37;;;;;;;7.30;5.42;;;;;;;1.38;100.00;101383.06;1725337;83;21176;-71
2022/11/27 00:34:07;;;;;;;9.65;6.53;;;;;;;1.37;100.00;101382.69;1757112;82;21159;-71
2022/11/27 00:36:36;;;;;;;9.58;6.22;;;;;;;1.36;100.00;101383.17;1723531;83;21159;-72
2022/11/27 00:39:05;;;;;;;8.85;5.33;;;;;;;1.40;100.00;101386.02;1725509;83;21116;-71
2022/11/27 00:41:36;;;;;;;11.80;6.37;;;;;;;1.41;100.00;101389.58;1757170;82;21164;-71
2022/11/27 00:44:06;;;;;;;12.18;6.70;;;;;;;1.41;100.00;101387.73;1723726;83;21178;-70
2022/11/27 00:46:35;;;;;;;9.28;5.10;;;;;;;1.40;100.00;101391.41;1725640;83;21168;-71
2022/11/27 00:49:05;;;;;;;10.40;5.45;;;;;;;1.41;100.00;101386.39;1757242;82;21156;-70
2022/11/27 00:51:34;;;;;;;8.95;5.50;;;;;;;1.43;100.00;101381.73;1723754;83;21145;-69
2022/11/27 00:54:03;;;;;;;11.00;6.67;;;;;;;1.40;100.00;101380.62;1725605;83;21155;-71
2022/11/27 00:56:36;;;;;;;9.08;5.72;;;;;;;1.41;100.00;101378.29;1756803;81;21112;-72
2022/11/27 00:59:05;;;;;;;7.53;5.15;;;;;;;1.43;100.00;101374.12;1723521;83;21110;-69
2022/11/27 01:01:37;;;;;;;9.73;6.20;;;;;;;1.43;100.00;101372.28;1725734;83;21134;-70
2022/11/27 01:04:08;;;;;;;9.78;5.83;;;;;;;1.45;100.00;101377.08;1757036;82;21096;-71
2022/11/27 01:06:37;;;;;;;8.75;6.15;;;;;;;1.48;100.00;101366.54;1697360;83;21406;-72
2022/11/27 01:09:06;;;;;;;6.17;4.62;;;;;;;1.47;100.00;101365.67;1726953;83;21163;-70
2022/11/27 01:11:35;;;;;;;8.88;5.37;;;;;;;1.46;100.00;101363.95;1757010;81;21631;-70
2022/11/27 01:14:07;;;;;;;8.43;5.70;;;;;;;1.48;100.00;101363.84;1757364;82;21174;-70
2022/11/27 01:16:37;;;;;;;9.08;6.15;;;;;;;1.46;100.00;101362.60;1757152;82;21126;-71
2022/11/27 01:19:10;;;;;;;7.78;4.70;;;;;;;1.46;100.00;101365.30;1756874;81;21166;-71
2022/11/27 01:21:39;;;;;;;10.80;5.28;;;;;;;1.43;100.00;101366.89;1757076;82;21181;-72
2022/11/27 01:24:10;;;;;;;8.18;5.55;;;;;;;1.38;100.00;101369.07;1757275;81;21165;-71
2022/11/27 01:26:38;;;;;;;9.58;5.65;;;;;;;1.38;100.00;101366.37;1756954;81;21546;-73
2022/11/27 01:29:08;;;;;;;11.70;6.22;;;;;;;1.38;100.00;101364.16;1757246;82;21162;-71
2022/11/27 01:31:37;;;;;;;9.03;5.75;;;;;;;1.37;100.00;101361.95;1757115;82;21126;-71
2022/11/27 01:34:09;;;;;;;7.37;5.05;;;;;;;1.35;100.00;101363.90;1757015;82;21174;-70
2022/11/27 01:36:38;;;;;;;12.58;6.90;;;;;;;1.35;100.00;101366.59;1756920;81;21643;-70
2022/11/27 01:39:07;;;;;;;11.38;5.75;;;;;;;1.34;100.00;101362.17;1757214;82;21679;-70
2022/11/27 01:41:42;;;;;;;7.53;5.22;;;;;;;1.34;100.00;101367.58;1757404;82;21165;-70
2022/11/27 01:44:34;;;;;;;12.85;6.72;;;;;;;1.36;100.00;101361.57;1756795;82;21166;-70
2022/11/27 01:47:06;;;;;;;9.23;6.15;;;;;;;1.35;100.00;101363.90;1757076;82;21091;-70
2022/11/27 01:49:41;;;;;;;7.95;5.90;;;;;;;1.36;100.00;101365.63;1757218;82;21538;-71
2022/11/27 01:52:28;;;;;;;9.28;6.22;;;;;;;1.36;100.00;101359.36;1757029;82;21126;-71
2022/11/27 01:55:02;;;;;;;10.05;6.22;;;;;;;1.34;100.00;101356.77;1757375;82;21213;-70
2022/11/27 01:57:51;;;;;;;8.68;5.35;;;;;;;1.36;100.00;101364.27;1753251;82;21110;-70
2022/11/27 02:00:21;;;;;;;9.03;6.20;;;;;;;1.38;100.00;101369.56;1757005;82;21116;-71
2022/11/27 02:02:51;;;;;;;7.55;5.45;;;;;;;1.36;100.00;101364.77;1723753;83;21228;-71
2022/11/27 02:05:23;;;;;;;8.35;5.33;;;;;;;1.37;100.00;101363.78;1725564;83;21128;-72
2022/11/27 02:07:52;;;;;;;8.63;5.33;;;;;;;1.37;100.00;101367.34;1757009;82;21160;-71
2022/11/27 02:10:51;;;;;;;8.40;5.15;;;;;;;1.40;100.00;101366.25;1723396;83;21119;-71
2022/11/27 02:13:28;;;;;;;7.92;5.33;;;;;;;1.40;100.00;101357.66;1725295;83;21147;-70
2022/11/27 02:16:31;;;;;;;7.78;5.58;;;;;;;1.41;100.00;101364.79;1692234;85;21587;-71
2022/11/27 02:19:26;;;;;;;6.62;5.08;;;;;;;1.40;100.00;101364.91;1724700;83;21131;-71
2022/11/27 02:22:26;;;;;;;7.35;5.08;;;;;;;1.40;100.00;101362.20;1724982;83;21171;-71
2022/11/27 02:25:26;;;;;;;8.18;5.58;;;;;;;1.41;100.00;101360.73;1721107;83;21634;-70
2022/11/27 02:28:02;;;;;;;7.15;5.12;;;;;;;1.40;100.00;101368.47;1724981;83;21147;-71
2022/11/27 02:30:34;;;;;;;7.85;4.67;;;;;;;1.40;100.00;101371.17;1720519;83;21131;-71
2022/11/27 02:33:04;;;;;;;8.65;5.00;;;;;;;1.42;100.00;101367.86;1727511;80;21179;-71
2022/11/27 02:35:41;;;;;;;8.00;5.47;;;;;;;1.42;100.00;101366.52;1792075;80;21090;-70
2022/11/27 02:38:24;;;;;;;8.50;5.00;;;;;;;1.38;100.00;101368.20;1757421;82;21130;-70
2022/11/27 02:41:03;;;;;;;6.97;4.28;;;;;;;1.34;100.00;101374.33;1757277;82;21513;-71
2022/11/27 02:43:42;;;;;;;7.90;4.83;;;;;;;1.34;100.00;101377.52;1723403;83;21604;-72
2022/11/27 02:46:12;;;;;;;7.00;4.78;;;;;;;1.33;100.00;101373.09;1725605;83;21556;-69
2022/11/27 02:48:56;;;;;;;6.55;4.90;;;;;;;1.36;100.00;101376.42;1756938;82;21564;-71
2022/11/27 02:51:29;;;;;;;6.70;4.58;;;;;;;1.38;100.00;101370.91;1723524;83;21627;-70
2022/11/27 02:54:02;;;;;;;7.55;4.60;;;;;;;1.35;100.00;101366.59;1725440;83;21108;-71
2022/11/27 02:56:31;;;;;;;4.95;3.92;;;;;;;1.35;100.00;101374.70;1757099;81;21124;-71
2022/11/27 02:59:05;;;;;;;8.15;5.72;;;;;;;1.38;100.00;101364.16;1723673;83;21130;-70
2022/11/27 03:01:39;;;;;;;6.25;4.30;;;;;;;1.35;100.00;101365.25;1725401;83;21585;-70
2022/11/27 03:04:12;;;;;;;6.45;4.60;;;;;;;1.33;100.00;101372.60;1756997;82;21120;-71
2022/11/27 03:06:49;;;;;;;6.40;5.10;;;;;;;1.34;100.00;101380.21;1723603;83;21118;-71
2022/11/27 03:09:34;;;;;;;6.30;4.50;;;;;;;1.33;100.00;101377.14;1725611;83;21135;-72
2022/11/27 03:12:04;;;;;;;6.50;4.80;;;;;;;1.35;100.00;101384.15;1761369;81;21156;-69
2022/11/27 03:14:34;;;;;;;6.45;4.33;;;;;;;1.38;100.00;101390.67;1729011;83;21153;-71
2022/11/27 03:17:33;;;;;;;6.35;4.10;;;;;;;1.38;100.00;101397.42;1730797;83;21195;-70
2022/11/27 03:20:27;;;;;;;7.03;4.17;;;;;;;1.36;100.00;101392.63;1762672;81;21123;-71
2022/11/27 03:22:57;;;;;;;7.70;4.58;;;;;;;1.41;100.00;101397.68;1729047;83;21102;-70
2022/11/27 03:25:25;;;;;;;6.12;4.28;;;;;;;1.40;100.00;101393.25;1730934;83;21100;-71
2022/11/27 03:27:59;;;;;;;5.12;3.75;;;;;;;1.40;100.00;101395.47;1762679;81;21602;-70
2022/11/27 03:30:30;;;;;;;7.62;5.17;;;;;;;1.43;100.00;101391.19;1729077;83;21166;-71
2022/11/27 03:33:00;;;;;;;8.78;5.70;;;;;;;1.47;100.00;101395.38;1731029;83;21171;-70
2022/11/27 03:35:30;;;;;;;6.35;4.25;;;;;;;1.49;100.00;101390.73;1759949;81;21602;-70
2022/11/27 03:38:00;;;;;;;9.18;4.87;;;;;;;1.49;100.00;101394.78;1762627;81;21095;-70
2022/11/27 03:40:42;;;;;;;7.42;5.30;;;;;;;1.49;100.00;101392.08;1729172;83;21178;-70
2022/11/27 03:43:18;;;;;;;8.20;5.67;;;;;;;1.48;100.00;101389.49;1730954;83;21179;-69
2022/11/27 03:45:59;;;;;;;9.28;5.30;;;;;;;1.43;100.00;101388.48;1762551;81;21548;-70
2022/11/27 03:49:00;;;;;;;8.13;4.50;;;;;;;1.38;100.00;101392.02;1728992;83;21154;-70
2022/11/27 03:51:50;;;;;;;8.08;5.22;;;;;;;1.39;100.00;101392.88;1730984;83;21171;-70
2022/11/27 03:54:39;;;;;;;7.30;4.85;;;;;;;1.37;100.00;101396.19;1762903;81;21119;-70
2022/11/27 03:57:34;;;;;;;10.28;5.08;;;;;;;1.35;100.00;101391.39;1729003;83;21558;-71
2022/11/27 04:00:07;;;;;;;8.30;5.87;;;;;;;1.36;100.00;101400.72;1730997;83;21199;-71
2022/11/27 04:02:46;;;;;;;7.75;5.50;;;;;;;1.36;100.00;101396.67;1735567;81;21147;-69
2022/11/27 04:05:15;;;;;;;7.87;5.75;;;;;;;1.36;100.00;101391.27;1729028;83;21143;-70
2022/11/27 04:07:45;;;;;;;7.30;4.97;;;;;;;1.36;100.00;101395.33;1730804;83;21167;-70
2022/11/27 04:10:14;;;;;;;7.00;5.20;;;;;;;1.35;100.00;101403.54;1762579;81;21100;-69
2022/11/27 04:12:43;;;;;;;7.62;5.25;;;;;;;1.38;100.00;101405.52;1729034;83;21193;-70
2022/11/27 04:15:12;;;;;;;9.28;5.28;;;;;;;1.40;100.00;101397.30;1731088;83;21120;-71
2022/11/27 04:17:42;;;;;;;8.23;5.03;;;;;;;1.40;100.00;101395.47;1762693;81;21164;-71
2022/11/27 04:20:15;;;;;;;6.22;4.53;;;;;;;1.41;100.00;101401.24;1728995;83;21213;-70
2022/11/27 04:22:46;;;;;;;7.92;5.45;;;;;;;1.40;100.00;101398.66;1730750;83;21559;-70
2022/11/27 04:25:16;;;;;;;9.18;6.10;;;;;;;1.39;100.00;101392.88;1762799;81;21127;-71
2022/11/27 04:27:45;;;;;;;7.15;5.65;;;;;;;1.41;100.00;101407.13;1729025;83;21208;-70
2022/11/27 04:30:16;;;;;;;8.78;5.87;;;;;;;1.43;100.00;101400.64;1731104;83;21195;-71
2022/11/27 04:32:45;;;;;;;8.30;5.67;;;;;;;1.44;100.00;101392.91;1762786;81;21170;-69
2022/11/27 04:35:14;;;;;;;9.45;5.85;;;;;;;1.44;100.00;101398.31;1729165;83;21320;-69
2022/11/27 04:37:44;;;;;;;9.18;6.00;;;;;;;1.42;100.00;101399.41;1730861;83;21858;-71
2022/11/27 04:40:14;;;;;;;8.40;5.70;;;;;;;1.39;100.00;101388.34;1762802;81;21609;-69
2022/11/27 04:42:44;;;;;;;8.73;6.05;;;;;;;1.42;100.00;101398.05;1729204;83;21106;-70
2022/11/27 04:45:13;;;;;;;9.70;5.75;;;;;;;1.40;100.00;101394.12;1731062;83;21170;-71
2022/11/27 04:47:42;;;;;;;9.63;5.40;;;;;;;1.39;100.00;101396.44;1762901;81;21184;-71
2022/11/27 04:50:11;;;;;;;10.60;6.35;;;;;;;1.36;100.00;101399.37;1729098;83;21156;-71
2022/11/27 04:52:41;;;;;;;13.43;8.15;;;;;;;1.33;100.00;101398.73;1730880;83;21596;-70
2022/11/27 04:55:10;;;;;;;10.48;6.42;;;;;;;1.31;100.00;101399.34;1762676;81;21089;-70
2022/11/27 04:57:39;;;;;;;10.63;6.45;;;;;;;1.32;100.00;101390.27;1729406;83;21123;-70
2022/11/27 05:00:09;;;;;;;12.65;7.33;;;;;;;1.33;100.00;101397.39;1730848;83;21412;-71
2022/11/27 05:02:38;;;;;;;14.45;7.92;;;;;;;1.32;100.00;101405.98;1762633;81;21220;-72
2022/11/27 05:05:09;;;;;;;12.68;7.85;;;;;;;1.31;100.00;101401.55;1729062;83;21170;-71
2022/11/27 05:07:39;;;;;;;11.88;6.67;;;;;;;1.29;100.00;101404.82;1730912;83;21135;-72
2022/11/27 05:10:09;;;;;;;10.78;6.53;;;;;;;1.26;100.00;101399.65;1762629;81;21604;-72
2022/11/27 05:12:38;;;;;;;12.43;8.05;;;;;;;1.25;100.00;101396.58;1728913;83;21201;-70
2022/11/27 05:15:08;;;;;;;12.70;7.00;;;;;;;1.23;100.00;101399.87;1731313;83;21191;-71
2022/11/27 05:17:37;;;;;;;10.15;6.20;;;;;;;1.21;100.00;101408.09;1762815;81;21152;-71
2022/11/27 05:20:08;;;;;;;10.30;6.25;;;;;;;1.21;100.00;101410.78;1729135;83;21130;-71
2022/11/27 05:22:36;;;;;;;10.72;6.78;;;;;;;1.22;100.00;101410.30;1731014;83;21159;-72
2022/11/27 05:25:07;;;;;;;12.80;6.78;;;;;;;1.20;100.00;101409.55;1762811;81;21128;-71
2022/11/27 05:27:35;;;;;;;13.35;7.12;;;;;;;1.19;100.00;101411.39;1729132;83;21523;-73
2022/11/27 05:30:07;;;;;;;11.15;6.87;;;;;;;1.17;100.00;101412.48;1731217;83;21143;-72
2022/11/27 05:32:38;;;;;;;13.15;7.53;;;;;;;1.17;100.00;101411.12;1762717;81;21159;-72
2022/11/27 05:35:07;;;;;;;11.28;6.42;;;;;;;1.19;100.00;101411.88;1729195;83;21182;-71
2022/11/27 05:37:37;;;;;;;10.40;6.15;;;;;;;1.20;100.00;101414.95;1730919;83;21131;-73
2022/11/27 05:40:09;;;;;;;13.58;7.10;;;;;;;1.21;100.00;101413.48;1762906;81;21139;-72
2022/11/27 05:42:38;;;;;;;14.90;7.70;;;;;;;1.22;100.00;101414.34;1729228;83;21158;-72
2022/11/27 05:45:08;;;;;;;12.33;7.00;;;;;;;1.25;100.00;101408.72;1731128;83;21195;-73
2022/11/27 05:47:38;;;;;;;11.30;6.62;;;;;;;1.25;100.00;101412.77;1762858;81;21131;-72
2022/11/27 05:50:07;;;;;;;9.80;6.58;;;;;;;1.26;100.00;101411.80;1729316;83;21126;-73
2022/11/27 05:52:36;;;;;;;9.35;6.40;;;;;;;1.28;100.00;101416.59;1730923;83;21120;-72
2022/11/27 05:55:06;;;;;;;9.83;6.30;;;;;;;1.25;100.00;101416.82;1762597;81;21527;-71
2022/11/27 05:57:34;;;;;;;10.85;6.33;;;;;;;1.25;100.00;101414.13;1729199;83;21209;-72
2022/11/27 06:00:05;;;;;;;11.70;5.53;;;;;;;1.24;100.00;101412.39;1731248;83;21159;-71
2022/11/27 06:02:33;;;;;;;11.65;6.12;;;;;;;1.22;100.00;101414.34;1762881;81;21159;-72
2022/11/27 06:05:03;;;;;;;12.75;6.45;;;;;;;1.19;100.00;101420.83;1729030;83;21181;-72
2022/11/27 06:07:32;;;;;;;9.78;6.05;;;;;;;1.20;100.00;101422.56;1730843;83;21183;-70
2022/11/27 06:10:02;;;;;;;11.20;6.45;;;;;;;1.21;100.00;101423.42;1762611;81;21579;-72
2022/11/27 06:12:32;;;;;;;12.23;7.03;;;;;;;1.22;100.00;101421.09;1725935;83;21123;-71
2022/11/27 06:15:01;;;;;;;12.60;6.37;;;;;;;1.21;100.00;101424.77;1725700;83;21147;-72
2022/11/27 06:17:30;;;;;;;15.10;7.47;;;;;;;1.23;100.00;101426.87;1757196;82;21143;-72
2022/11/27 06:19:59;;;;;;;11.68;6.97;;;;;;;1.24;100.00;101420.01;1723785;83;21170;-70
2022/11/27 06:22:28;;;;;;;16.65;9.00;;;;;;;1.27;100.00;101421.62;1725691;83;21139;-71
2022/11/27 06:24:57;;;;;;;12.70;7.30;;;;;;;1.28;100.00;101420.64;1728067;82;21547;-70
2022/11/27 06:27:26;;;;;;;14.05;7.28;;;;;;;1.28;100.00;101416.59;1723614;83;21197;-71
2022/11/27 06:29:55;;;;;;;15.10;8.18;;;;;;;1.29;100.00;101430.47;1696302;83;21139;-71
2022/11/27 06:32:23;;;;;;;12.33;7.55;;;;;;;1.30;100.00;101427.28;1757189;82;21131;-71
2022/11/27 06:34:53;;;;;;;11.25;6.85;;;;;;;1.28;100.00;101433.66;1723826;83;21111;-71
2022/11/27 06:37:21;;;;;;;12.10;6.53;;;;;;;1.29;100.00;101431.82;1725622;83;21111;-73
2022/11/27 06:39:50;;;;;;;14.03;7.42;;;;;;;1.34;100.00;101438.27;1756988;82;21120;-72
2022/11/27 06:42:20;;;;;;;19.45;9.10;;;;;;;1.33;100.00;101435.19;1723512;83;21157;-72
2022/11/27 06:44:49;;;;;;;18.55;9.05;;;;;;;1.33;100.00;101436.05;1725371;83;21579;-71
2022/11/27 06:47:18;;;;;;;19.57;8.88;;;;;;;1.36;100.00;101434.96;1757369;82;21132;-70
2022/11/27 06:49:47;;;;;;;20.45;10.13;;;;;;;1.35;100.00;101439.50;1723872;83;21150;-71
2022/11/27 06:52:17;;;;;;;23.10;10.63;;;;;;;1.32;100.00;101440.21;1760149;81;21122;-70
2022/11/27 06:54:46;;;;;;;25.25;10.88;;;;;;;1.26;100.00;101438.80;1757191;82;21161;-71
2022/11/27 06:57:15;;;;;;;19.75;9.55;;;;;;;1.25;100.00;101447.37;1756893;82;21114;-70
2022/11/27 06:59:44;;;;;;;19.48;9.53;;;;;;;1.26;100.00;101436.09;1756980;81;21514;-70
2022/11/27 07:02:15;;;;;;;22.37;9.60;;;;;;;1.24;100.00;101440.26;1757146;81;21573;-70
2022/11/27 07:04:45;;;;;;;17.37;8.65;;;;;;;1.23;100.00;101441.72;1756597;82;21122;-70
2022/11/27 07:07:14;;;;;;;15.08;7.65;;;;;;;1.24;100.00;101442.09;1756992;81;21122;-70
2022/11/27 07:09:45;;;;;;;19.17;8.75;;;;;;;1.24;100.00;101440.74;1757231;82;21173;-71
2022/11/27 07:12:14;;;;;;;18.80;9.03;;;;;;;1.23;100.00;101441.72;1756994;81;21219;-69
2022/11/27 07:14:44;;;;;;;15.65;7.40;;;;;;;1.21;100.00;101446.37;1723860;83;21126;-70
2022/11/27 07:17:15;;;;;;;13.53;7.15;;;;;;;1.17;100.00;101442.17;1725408;83;21160;-70
2022/11/27 07:19:44;;;;;;;12.37;7.65;;;;;;;1.18;100.00;101447.94;1756749;82;21167;-69
2022/11/27 07:22:15;;;;;;;20.77;10.08;;;;;;;1.17;100.00;101446.22;1723615;83;21138;-71
2022/11/27 07:24:44;;;;;;;16.80;8.95;;;;;;;1.16;100.00;101450.75;1760266;81;21623;-72
2022/11/27 07:27:13;;;;;;;19.02;8.78;;;;;;;1.14;100.00;101445.09;1725659;83;21211;-70
2022/11/27 07:29:42;;;;;;;19.75;9.70;;;;;;;1.14;100.00;101443.73;1756964;82;21536;-70
2022/11/27 07:32:11;;;;;;;14.73;8.55;;;;;;;1.16;100.00;101435.05;1723763;83;21169;-70
2022/11/27 07:34:40;;;;;;;12.53;7.17;;;;;;;1.16;100.00;101441.80;1725340;83;21160;-72
2022/11/27 07:37:09;;;;;;;11.90;6.75;;;;;;;1.14;100.00;101439.69;1756922;82;21550;-71
2022/11/27 07:39:38;;;;;;;15.08;7.25;;;;;;;1.15;100.00;101437.37;1723903;83;21162;-70
2022/11/27 07:42:09;;;;;;;14.68;7.70;;;;;;;1.18;100.00;101433.09;1721338;83;21155;-70
2022/11/27 07:44:40;;;;;;;14.10;8.33;;;;;;;1.17;100.00;101440.33;1752806;82;21164;-71
2022/11/27 07:47:11;;;;;;;22.17;8.65;;;;;;;1.16;100.00;101441.30;1723994;83;21150;-71
2022/11/27 07:49:40;;;;;;;16.97;8.38;;;;;;;1.19;100.00;101442.43;1725504;83;21147;-72
2022/11/27 07:52:09;;;;;;;21.75;9.95;;;;;;;1.21;100.00;101437.78;1756670;82;21183;-71
2022/11/27 07:54:39;;;;;;;19.45;9.28;;;;;;;1.20;100.00;101441.45;1723719;83;21157;-71
2022/11/27 07:57:09;;;;;;;17.60;8.38;;;;;;;1.22;100.00;101442.69;1725584;83;21171;-72
2022/11/27 07:59:38;;;;;;;21.60;10.20;;;;;;;1.21;100.00;101443.18;1756987;82;21579;-70
2022/11/27 08:02:12;;;;;;;19.65;9.40;;;;;;;1.18;100.00;101444.75;1758778;81;21627;-71
2022/11/27 08:04:43;;;;;;;17.75;8.38;;;;;;;1.19;100.00;101445.12;1663059;86;21585;-73
2022/11/27 08:07:12;;;;;;;18.07;9.73;;;;;;;1.20;100.00;101437.41;1724775;83;21169;-72
2022/11/27 08:09:44;;;;;;;16.17;9.48;;;;;;;1.16;100.00;101440.44;1725010;83;21154;-72
2022/11/27 08:12:12;;;;;;;16.65;9.70;;;;;;;1.13;100.00;101440.17;1725900;83;21394;-73
2022/11/27 08:14:41;;;;;;;14.70;8.78;;;;;;;1.13;100.00;101444.72;1733194;83;21151;-72
2022/11/27 08:17:12;;;;;;;12.73;7.42;;;;;;;1.15;100.00;101437.37;1732796;83;21591;-73
2022/11/27 08:19:41;;;;;;;14.80;8.00;;;;;;;1.16;100.00;101443.14;1709023;83;21104;-73
2022/11/27 08:22:15;;;;;;;14.30;6.97;;;;;;;1.15;100.00;101444.11;1745891;80;21165;-73
2022/11/27 08:24:46;;;;;;;16.37;7.85;;;;;;;1.14;100.00;101446.44;1760503;81;21110;-71
2022/11/27 08:27:15;;;;;;;15.28;7.92;;;;;;;1.14;100.00;101445.95;1733233;82;21562;-71
2022/11/27 08:29:44;;;;;;;15.88;8.13;;;;;;;1.15;100.00;101453.08;1760501;81;21143;-70
2022/11/27 08:32:13;;;;;;;16.42;7.58;;;;;;;1.15;100.00;101450.86;1760582;81;21571;-72
2022/11/27 08:34:42;;;;;;;14.38;7.80;;;;;;;1.14;100.00;101450.00;1760452;81;21159;-71
2022/11/27 08:37:12;;;;;;;14.50;7.80;;;;;;;1.14;100.00;101450.48;1760690;81;21080;-70
2022/11/27 08:39:41;;;;;;;18.95;8.80;;;;;;;1.10;100.00;101453.03;1760623;81;21629;-69
2022/11/27 08:42:10;;;;;;;15.23;8.13;;;;;;;1.09;100.00;101449.96;1760735;81;21112;-70
2022/11/27 08:44:40;;;;;;;14.38;7.78;;;;;;;1.11;100.00;101453.41;1760703;81;21120;-70
2022/11/27 08:47:09;;;;;;;17.42;8.83;;;;;;;1.12;100.00;101447.90;1760665;81;21116;-70
2022/11/27 08:49:38;;;;;;;17.85;8.15;;;;;;;1.12;100.00;101452.44;1760482;81;21169;-69
2022/11/27 08:52:10;;;;;;;15.53;8.10;;;;;;;1.11;100.00;101445.31;1733802;81;21198;-69
2022/11/27 08:54:39;;;;;;;13.28;7.80;;;;;;;1.10;100.00;101450.34;1760597;81;21156;-70
2022/11/27 08:57:10;;;;;;;13.30;7.35;;;;;;;1.11;100.00;101449.36;1760390;81;21159;-70
2022/11/27 08:59:40;;;;;;;13.03;7.95;;;;;;;1.12;100.00;101441.64;1760357;81;21108;-69
2022/11/27 09:02:12;;;;;;;14.18;8.08;;;;;;;1.12;100.00;101438.94;1760454;81;21096;-69
2022/11/27 09:04:40;;;;;;;18.67;8.95;;;;;;;1.15;100.00;101442.77;1760436;81;21191;-71
2022/11/27 09:07:16;;;;;;;17.40;8.70;;;;;;;1.17;100.00;101443.52;1760428;81;21516;-70
2022/11/27 09:09:45;;;;;;;19.17;9.28;;;;;;;1.18;100.00;101439.35;1760769;81;21579;-69
2022/11/27 09:12:14;;;;;;;18.70;8.88;;;;;;;1.17;100.00;101444.86;1760149;81;21128;-69
2022/11/27 09:14:44;;;;;;;14.87;8.10;;;;;;;1.16;100.00;101438.60;1752037;82;21108;-69
2022/11/27 09:17:13;;;;;;;16.70;7.75;;;;;;;1.15;100.00;101439.58;1752513;82;21132;-70
2022/11/27 09:19:41;;;;;;;21.05;9.63;;;;;;;1.15;100.00;101442.77;1752376;82;21116;-69
2022/11/27 09:22:10;;;;;;;21.35;9.33;;;;;;;1.16;100.00;101444.48;1752184;82;21145;-69
2022/11/27 09:24:39;;;;;;;19.67;9.45;;;;;;;1.18;100.00;101441.19;1752248;82;21183;-71
2022/11/27 09:27:08;;;;;;;24.75;11.75;;;;;;;1.20;100.00;101441.94;1752184;82;21605;-71
2022/11/27 09:29:38;;;;;;;24.98;12.05;;;;;;;1.20;100.00;101443.30;1752516;81;21566;-72
2022/11/27 09:32:06;;;;;;;25.70;12.20;;;;;;;1.21;100.00;101440.97;1752164;82;21279;-71
2022/11/27 09:34:37;;;;;;;16.93;9.65;;;;;;;1.20;100.00;101436.05;1752243;81;21155;-71
2022/11/27 09:37:08;;;;;;;21.45;9.93;;;;;;;1.17;100.00;101437.63;1752194;82;21171;-72
2022/11/27 09:39:37;;;;;;;23.55;11.28;;;;;;;1.16;100.00;101441.30;1752258;82;21139;-72
2022/11/27 09:42:09;;;;;;;20.10;9.48;;;;;;;1.13;100.00;101437.97;1752218;82;21183;-73
2022/11/27 09:44:54;;;;;;;17.27;8.23;;;;;;;1.13;100.00;101437.48;1727908;82;21181;-72
2022/11/27 09:47:43;;;;;;;17.73;8.45;;;;;;;1.14;100.00;101439.69;1756943;82;21587;-71
2022/11/27 09:50:21;;;;;;;21.82;10.15;;;;;;;1.13;100.00;101433.91;1723535;83;21190;-71
2022/11/27 09:53:04;;;;;;;16.42;7.53;;;;;;;1.11;100.00;101437.22;1759993;81;21723;-70
2022/11/27 09:55:40;;;;;;;15.75;7.25;;;;;;;1.11;100.00;101437.22;1725383;83;21614;-71
2022/11/27 09:58:25;;;;;;;16.70;7.42;;;;;;;1.09;100.00;101431.92;1756935;82;21167;-70
2022/11/27 10:00:55;;;;;;;16.10;7.95;;;;;;;1.09;100.00;101445.91;1723341;83;21659;-72
2022/11/27 10:03:25;;;;;;;13.00;6.30;;;;;;;1.09;100.00;101435.12;1725549;83;21172;-71
2022/11/27 10:06:26;;;;;;;14.13;6.95;;;;;;;1.08;100.00;101435.60;1756910;82;21144;-72
2022/11/27 17:06:52;;;;;;;16.80;8.60;;;;;;;0.91;100.00;101447.61;1844373;77;28550;-67
2022/11/27 17:09:23;;;;;;;17.12;8.00;;;;;;;0.90;100.00;101445.03;1820570;77;21145;-65
2022/11/27 17:11:51;;;;;;;12.07;6.37;;;;;;;0.90;100.00;101445.03;1820562;79;21094;-66
2022/11/27 17:14:20;;;;;;;13.62;6.58;;;;;;;0.91;100.00;101437.31;1820390;79;21126;-66
2022/11/27 17:16:49;;;;;;;12.75;6.10;;;;;;;0.89;100.00;101442.81;1820214;79;21114;-66
2022/11/27 17:19:21;;;;;;;13.13;6.33;;;;;;;0.89;100.00;101444.66;1820573;79;21109;-66
2022/11/27 17:21:50;;;;;;;13.83;6.92;;;;;;;0.88;100.00;101450.53;1820460;79;21618;-67
2022/11/27 17:24:23;;;;;;;10.80;5.90;;;;;;;0.87;100.00;101442.55;1820368;79;21497;-70
2022/11/27 17:26:54;;;;;;;13.03;6.45;;;;;;;0.90;100.00;101450.42;1820292;77;21169;-69
2022/11/27 17:29:24;;;;;;;12.35;5.60;;;;;;;0.91;100.00;101440.87;1819054;79;21090;-69
2022/11/27 17:31:53;;;;;;;10.90;5.72;;;;;;;0.91;100.00;101444.05;1820476;77;21137;-68
2022/11/27 17:34:24;;;;;;;10.55;4.92;;;;;;;0.91;100.00;101447.61;1820201;79;21588;-67
2022/11/27 17:36:56;;;;;;;11.88;5.92;;;;;;;0.94;100.00;101451.92;1820405;79;21588;-68
2022/11/27 17:39:24;;;;;;;10.40;5.45;;;;;;;0.95;100.00;101449.12;1820199;79;21149;-67
2022/11/27 17:41:53;;;;;;;13.28;6.00;;;;;;;0.97;100.00;101448.14;1820234;79;21137;-68
2022/11/27 17:44:22;;;;;;;11.90;5.55;;;;;;;0.97;100.00;101447.66;1820325;77;21146;-67
2022/11/27 17:46:50;;;;;;;13.10;6.15;;;;;;;0.98;100.00;101449.88;1820481;78;21114;-67
2022/11/27 17:49:20;;;;;;;11.53;6.08;;;;;;;0.98;100.00;101452.09;1820247;78;21537;-69
2022/11/27 17:51:50;;;;;;;11.40;5.53;;;;;;;0.98;100.00;101455.27;1820192;77;21161;-69
2022/11/27 17:54:20;;;;;;;11.30;6.25;;;;;;;0.95;100.00;101452.30;1820185;79;21098;-69
2022/11/27 17:56:50;;;;;;;11.80;5.92;;;;;;;0.96;100.00;101451.33;1820497;79;21122;-68
2022/11/27 17:59:20;;;;;;;10.72;6.25;;;;;;;0.97;100.00;101440.05;1820255;77;21188;-69
2022/11/27 18:01:51;;;;;;;19.50;7.87;;;;;;;0.98;100.00;101438.59;1820251;77;21603;-68
2022/11/27 18:04:19;;;;;;;18.35;7.78;;;;;;;0.99;100.00;101448.41;1820473;77;21109;-68
2022/11/27 18:06:48;;;;;;;13.78;6.45;;;;;;;0.98;100.00;101442.64;1827675;77;21132;-67
2022/11/27 18:09:19;;;;;;;12.70;5.75;;;;;;;0.99;100.00;101445.72;1828992;78;21136;-66
2022/11/27 18:11:48;;;;;;;14.75;6.05;;;;;;;0.97;100.00;101442.75;1828730;78;21101;-67
2022/11/27 18:14:17;;;;;;;14.75;7.47;;;;;;;0.95;100.00;101442.38;1799018;78;21105;-66
2022/11/27 18:16:46;;;;;;;17.75;7.55;;;;;;;0.95;100.00;101445.56;1828832;78;21089;-66
2022/11/27 18:19:16;;;;;;;16.77;7.83;;;;;;;0.94;100.00;101450.09;1828601;77;21571;-66
2022/11/27 18:21:45;;;;;;;13.60;6.10;;;;;;;0.94;100.00;101450.09;1828663;78;21496;-65
2022/11/27 18:24:14;;;;;;;18.77;8.13;;;;;;;0.92;100.00;101449.34;1828789;78;21666;-65
2022/11/27 18:26:45;;;;;;;17.65;8.53;;;;;;;0.93;100.00;101450.20;1827194;78;21057;-68
2022/11/27 18:29:16;;;;;;;11.12;5.83;;;;;;;0.95;100.00;101445.56;1824385;77;21179;-68
2022/11/27 18:31:45;;;;;;;8.73;5.00;;;;;;;0.94;100.00;101451.44;1828725;78;21098;-67
2022/11/27 18:34:14;;;;;;;10.13;5.15;;;;;;;0.91;100.00;101449.45;1828975;78;21531;-67
2022/11/27 18:36:44;;;;;;;9.75;4.87;;;;;;;0.88;100.00;101454.58;1828575;78;21112;-67
2022/11/27 18:39:13;;;;;;;7.60;4.00;;;;;;;0.87;100.00;101458.73;1828604;78;21152;-67